Hanjiang, China
Current Conditions -  °F | °C
As of 5:00 AM on Tuesday 23 Dec 2014 (Local Time) from ZSFZ Reporting Station
Few Clouds Few Clouds  
Wind Chill: 42°   Ceiling: Unl
Heat Index: 46°   Visibility: 6mi
Dew Point: 34°   Wind: 9mph
Humidity: 62%   Direction: 320°NW
Pressure: 30.27"   Gusts: NA
Location:  25.45°N, 119.1°E
Report Text: ZSFZ 222100Z 32004MPS 280V360 9999 FEW043 08/01 Q1025 NOSIG
Loading
Personal Weather Stations






























Interactive Weather Map New forecast layout! Learn more

10-Day Weather Forecast

Advertisements
Track Severe Weather on mobile